Breckenridge, Michigan
Current Conditions -  °F | °C
As of 7:15 AM on Monday 24 Nov 2014 (Local Time) from KAMN Reporting Station
Moderate Rain Moderate Rain  
Wind Chill: 50°   Ceiling: 800
Heat Index: 50°   Visibility: 7mi
Dew Point: 49°   Wind: 10mph
Humidity: 97%   Direction: 210°SSW
Pressure: 29.05"   Gusts: 16mph
Location:  43.41°N, 84.48°W
Report Text: KAMN 241215Z AUTO 21009G14KT 7SM RA OVC008 10/10 A2905 RMK AO2 T01000095
Loading
Personal Weather Stations






























Interactive Weather Map New forecast layout! Learn more

10-Day Weather Forecast

Advertisements
Track Severe Weather on mobile